sensor_id;sensor_type;location;lat;lon;timestamp;temperature;humidity
3778;DHT22;1904;50.076;8.660;2023-06-10T00:00:26;18.50;1.00
3778;DHT22;1904;50.076;8.660;2023-06-10T00:02:52;18.40;1.00
3778;DHT22;1904;50.076;8.660;2023-06-10T00:05:24;18.40;1.00
3778;DHT22;1904;50.076;8.660;2023-06-10T00:07:54;18.30;1.00
3778;DHT22;1904;50.076;8.660;2023-06-10T00:10:20;18.30;1.00
3778;DHT22;1904;50.076;8.660;2023-06-10T00:12:46;18.20;1.00
3778;DHT22;1904;50.076;8.660;2023-06-10T00:15:12;18.10;1.00
3778;DHT22;1904;50.076;8.660;2023-06-10T00:17:42;18.10;1.00
3778;DHT22;1904;50.076;8.660;2023-06-10T00:20:12;18.00;1.00
3778;DHT22;1904;50.076;8.660;2023-06-10T00:22:42;18.00;1.00
3778;DHT22;1904;50.076;8.660;2023-06-10T00:25:12;17.90;1.00
3778;DHT22;1904;50.076;8.660;2023-06-10T00:27:42;17.90;1.00
3778;DHT22;1904;50.076;8.660;2023-06-10T00:30:13;17.90;1.00
3778;DHT22;1904;50.076;8.660;2023-06-10T00:32:39;17.80;1.00
3778;DHT22;1904;50.076;8.660;2023-06-10T00:35:07;17.70;1.00
3778;DHT22;1904;50.076;8.660;2023-06-10T00:37:42;17.70;1.00
3778;DHT22;1904;50.076;8.660;2023-06-10T00:40:12;17.60;1.00
3778;DHT22;1904;50.076;8.660;2023-06-10T00:42:38;17.60;1.00
3778;DHT22;1904;50.076;8.660;2023-06-10T00:45:12;17.60;1.00
3778;DHT22;1904;50.076;8.660;2023-06-10T00:47:42;17.50;1.00
3778;DHT22;1904;50.076;8.660;2023-06-10T00:50:08;17.50;1.00
3778;DHT22;1904;50.076;8.660;2023-06-10T00:52:42;17.40;1.00
3778;DHT22;1904;50.076;8.660;2023-06-10T00:55:12;17.40;1.00
3778;DHT22;1904;50.076;8.660;2023-06-10T00:57:44;17.40;1.00
3778;DHT22;1904;50.076;8.660;2023-06-10T01:00:12;17.30;1.00
3778;DHT22;1904;50.076;8.660;2023-06-10T01:02:38;17.30;1.00
3778;DHT22;1904;50.076;8.660;2023-06-10T01:05:04;17.20;1.00
3778;DHT22;1904;50.076;8.660;2023-06-10T01:07:38;17.20;1.00
3778;DHT22;1904;50.076;8.660;2023-06-10T01:12:43;17.10;1.00
3778;DHT22;1904;50.076;8.660;2023-06-10T01:15:19;17.10;1.00
3778;DHT22;1904;50.076;8.660;2023-06-10T01:18:08;17.00;1.00
3778;DHT22;1904;50.076;8.660;2023-06-10T01:20:37;17.00;1.00
3778;DHT22;1904;50.076;8.660;2023-06-10T01:23:12;16.90;1.00
3778;DHT22;1904;50.076;8.660;2023-06-10T01:25:49;16.90;1.00
3778;DHT22;1904;50.076;8.660;2023-06-10T01:28:24;16.80;1.00
3778;DHT22;1904;50.076;8.660;2023-06-10T01:31:03;16.80;1.00
3778;DHT22;1904;50.076;8.660;2023-06-10T01:33:41;16.80;1.00
3778;DHT22;1904;50.076;8.660;2023-06-10T01:36:07;16.80;1.00
3778;DHT22;1904;50.076;8.660;2023-06-10T01:38:40;16.70;1.00
3778;DHT22;1904;50.076;8.660;2023-06-10T01:41:08;16.70;1.00
3778;DHT22;1904;50.076;8.660;2023-06-10T01:43:37;16.70;1.00
3778;DHT22;1904;50.076;8.660;2023-06-10T01:46:13;16.60;1.00
3778;DHT22;1904;50.076;8.660;2023-06-10T01:48:48;16.70;1.00
3778;DHT22;1904;50.076;8.660;2023-06-10T01:51:30;16.60;1.00
3778;DHT22;1904;50.076;8.660;2023-06-10T01:54:00;16.50;1.00
3778;DHT22;1904;50.076;8.660;2023-06-10T01:56:36;16.50;1.00
3778;DHT22;1904;50.076;8.660;2023-06-10T01:59:12;16.40;1.00
3778;DHT22;1904;50.076;8.660;2023-06-10T02:01:42;16.40;1.00
3778;DHT22;1904;50.076;8.660;2023-06-10T02:04:18;16.40;1.00
3778;DHT22;1904;50.076;8.660;2023-06-10T02:06:48;16.40;1.00
3778;DHT22;1904;50.076;8.660;2023-06-10T02:09:25;16.30;1.00
3778;DHT22;1904;50.076;8.660;2023-06-10T02:12:07;16.30;1.00
3778;DHT22;1904;50.076;8.660;2023-06-10T02:14:33;16.30;1.00
3778;DHT22;1904;50.076;8.660;2023-06-10T02:16:59;16.20;1.00
3778;DHT22;1904;50.076;8.660;2023-06-10T02:19:36;16.20;1.00
3778;DHT22;1904;50.076;8.660;2023-06-10T02:22:22;16.20;1.00
3778;DHT22;1904;50.076;8.660;2023-06-10T02:24:54;16.20;1.00
3778;DHT22;1904;50.076;8.660;2023-06-10T02:27:20;16.10;1.00
3778;DHT22;1904;50.076;8.660;2023-06-10T02:29:46;16.10;1.00
3778;DHT22;1904;50.076;8.660;2023-06-10T02:32:12;16.10;1.00
3778;DHT22;1904;50.076;8.660;2023-06-10T02:34:48;16.00;1.00
3778;DHT22;1904;50.076;8.660;2023-06-10T02:37:15;16.00;1.00
3778;DHT22;1904;50.076;8.660;2023-06-10T02:39:41;16.00;1.00
3778;DHT22;1904;50.076;8.660;2023-06-10T02:42:12;16.00;1.00
3778;DHT22;1904;50.076;8.660;2023-06-10T02:44:38;15.90;1.00
3778;DHT22;1904;50.076;8.660;2023-06-10T02:47:12;15.90;1.00
3778;DHT22;1904;50.076;8.660;2023-06-10T02:49:38;15.90;1.00
3778;DHT22;1904;50.076;8.660;2023-06-10T02:52:36;15.90;1.00
3778;DHT22;1904;50.076;8.660;2023-06-10T02:55:02;15.90;1.00
3778;DHT22;1904;50.076;8.660;2023-06-10T02:57:28;15.80;1.00
3778;DHT22;1904;50.076;8.660;2023-06-10T03:03:08;15.80;1.00
3778;DHT22;1904;50.076;8.660;2023-06-10T03:05:33;15.80;1.00
3778;DHT22;1904;50.076;8.660;2023-06-10T03:07:59;15.80;1.00
3778;DHT22;1904;50.076;8.660;2023-06-10T03:10:25;15.80;1.00
3778;DHT22;1904;50.076;8.660;2023-06-10T03:12:51;15.80;1.00
3778;DHT22;1904;50.076;8.660;2023-06-10T03:15:19;15.80;1.00
3778;DHT22;1904;50.076;8.660;2023-06-10T03:18:12;15.80;1.00
3778;DHT22;1904;50.076;8.660;2023-06-10T03:20:48;15.80;1.00
3778;DHT22;1904;50.076;8.660;2023-06-10T03:23:19;15.80;1.00
3778;DHT22;1904;50.076;8.660;2023-06-10T03:25:55;15.80;1.00
3778;DHT22;1904;50.076;8.660;2023-06-10T03:31:42;15.80;1.00
3778;DHT22;1904;50.076;8.660;2023-06-10T03:34:07;15.80;1.00
3778;DHT22;1904;50.076;8.660;2023-06-10T03:36:33;15.80;1.00
3778;DHT22;1904;50.076;8.660;2023-06-10T03:39:00;15.80;1.00
3778;DHT22;1904;50.076;8.660;2023-06-10T03:41:30;15.80;1.00
3778;DHT22;1904;50.076;8.660;2023-06-10T03:43:57;15.80;1.00
3778;DHT22;1904;50.076;8.660;2023-06-10T03:46:23;15.90;1.00
3778;DHT22;1904;50.076;8.660;2023-06-10T03:48:54;15.90;1.00
3778;DHT22;1904;50.076;8.660;2023-06-10T03:51:24;15.90;1.00
3778;DHT22;1904;50.076;8.660;2023-06-10T03:53:50;15.90;1.00
3778;DHT22;1904;50.076;8.660;2023-06-10T03:56:16;15.90;1.00
3778;DHT22;1904;50.076;8.660;2023-06-10T03:58:42;15.90;1.00
3778;DHT22;1904;50.076;8.660;2023-06-10T04:01:15;16.00;1.00
3778;DHT22;1904;50.076;8.660;2023-06-10T04:03:43;16.00;1.00
3778;DHT22;1904;50.076;8.660;2023-06-10T04:06:18;16.10;1.00
3778;DHT22;1904;50.076;8.660;2023-06-10T04:08:44;16.10;1.00
3778;DHT22;1904;50.076;8.660;2023-06-10T04:11:18;16.20;1.00
3778;DHT22;1904;50.076;8.660;2023-06-10T04:13:49;16.30;1.00
3778;DHT22;1904;50.076;8.660;2023-06-10T04:16:16;16.30;1.00
3778;DHT22;1904;50.076;8.660;2023-06-10T04:18:42;16.30;1.00
3778;DHT22;1904;50.076;8.660;2023-06-10T04:21:13;16.40;1.00
3778;DHT22;1904;50.076;8.660;2023-06-10T04:23:42;16.40;1.00
3778;DHT22;1904;50.076;8.660;2023-06-10T04:26:12;16.50;1.00
3778;DHT22;1904;50.076;8.660;2023-06-10T04:28:43;16.50;1.00
3778;DHT22;1904;50.076;8.660;2023-06-10T04:31:36;16.60;1.00
3778;DHT22;1904;50.076;8.660;2023-06-10T04:34:02;16.60;1.00
3778;DHT22;1904;50.076;8.660;2023-06-10T04:36:27;16.70;1.00
3778;DHT22;1904;50.076;8.660;2023-06-10T04:38:54;16.80;1.00
3778;DHT22;1904;50.076;8.660;2023-06-10T04:41:21;16.80;1.00
3778;DHT22;1904;50.076;8.660;2023-06-10T04:43:47;16.90;1.00
3778;DHT22;1904;50.076;8.660;2023-06-10T04:46:13;17.00;1.00
3778;DHT22;1904;50.076;8.660;2023-06-10T04:48:39;17.00;1.00
3778;DHT22;1904;50.076;8.660;2023-06-10T04:51:05;17.10;1.00
3778;DHT22;1904;50.076;8.660;2023-06-10T04:53:37;17.20;1.00
3778;DHT22;1904;50.076;8.660;2023-06-10T04:56:30;17.20;1.00
3778;DHT22;1904;50.076;8.660;2023-06-10T05:05:38;17.50;1.00
3778;DHT22;1904;50.076;8.660;2023-06-10T05:11:25;17.60;1.00
3778;DHT22;1904;50.076;8.660;2023-06-10T05:17:12;17.90;1.00
3778;DHT22;1904;50.076;8.660;2023-06-10T05:19:38;18.00;1.00
3778;DHT22;1904;50.076;8.660;2023-06-10T05:22:30;18.10;1.00
3778;DHT22;1904;50.076;8.660;2023-06-10T05:32:00;18.40;1.00
3778;DHT22;1904;50.076;8.660;2023-06-10T05:34:31;18.50;1.00
3778;DHT22;1904;50.076;8.660;2023-06-10T05:37:06;18.70;1.00
3778;DHT22;1904;50.076;8.660;2023-06-10T05:42:54;18.90;1.00
3778;DHT22;1904;50.076;8.660;2023-06-10T05:48:54;19.20;1.00
3778;DHT22;1904;50.076;8.660;2023-06-10T05:54:42;19.50;1.00
3778;DHT22;1904;50.076;8.660;2023-06-10T06:03:42;19.90;1.00
3778;DHT22;1904;50.076;8.660;2023-06-10T06:06:18;20.00;1.00
3778;DHT22;1904;50.076;8.660;2023-06-10T06:09:06;20.20;1.00
3778;DHT22;1904;50.076;8.660;2023-06-10T06:15:00;20.40;1.00
3778;DHT22;1904;50.076;8.660;2023-06-10T06:17:37;20.50;1.00
3778;DHT22;1904;50.076;8.660;2023-06-10T06:20:03;20.60;1.00
3778;DHT22;1904;50.076;8.660;2023-06-10T06:22:36;20.80;1.00
3778;DHT22;1904;50.076;8.660;2023-06-10T06:28:42;21.00;1.00
3778;DHT22;1904;50.076;8.660;2023-06-10T06:31:30;21.20;1.00
3778;DHT22;1904;50.076;8.660;2023-06-10T06:34:12;21.30;1.00
3778;DHT22;1904;50.076;8.660;2023-06-10T06:36:54;21.50;1.00
3778;DHT22;1904;50.076;8.660;2023-06-10T06:39:54;21.60;1.00
3778;DHT22;1904;50.076;8.660;2023-06-10T06:42:31;21.80;1.00
3778;DHT22;1904;50.076;8.660;2023-06-10T06:44:58;21.90;1.00
3778;DHT22;1904;50.076;8.660;2023-06-10T06:54:30;22.30;1.00
3778;DHT22;1904;50.076;8.660;2023-06-10T06:57:18;22.50;1.00
3778;DHT22;1904;50.076;8.660;2023-06-10T07:09:49;23.00;1.00
3778;DHT22;1904;50.076;8.660;2023-06-10T07:12:14;23.20;1.00
3778;DHT22;1904;50.076;8.660;2023-06-10T07:14:54;23.20;1.00
3778;DHT22;1904;50.076;8.660;2023-06-10T07:17:24;23.30;1.00
3778;DHT22;1904;50.076;8.660;2023-06-10T07:19:50;23.30;1.00
3778;DHT22;1904;50.076;8.660;2023-06-10T07:32:12;23.90;1.00
3778;DHT22;1904;50.076;8.660;2023-06-10T07:34:55;22.40;1.00
3778;DHT22;1904;50.076;8.660;2023-06-10T07:44:32;24.30;1.00
3778;DHT22;1904;50.076;8.660;2023-06-10T07:57:13;24.70;1.00
3778;DHT22;1904;50.076;8.660;2023-06-10T08:03:07;24.90;1.00
3778;DHT22;1904;50.076;8.660;2023-06-10T08:08:54;25.10;1.00
3778;DHT22;1904;50.076;8.660;2023-06-10T08:11:30;25.30;1.00
3778;DHT22;1904;50.076;8.660;2023-06-10T08:14:06;25.40;1.00
3778;DHT22;1904;50.076;8.660;2023-06-10T08:16:36;25.50;1.00
3778;DHT22;1904;50.076;8.660;2023-06-10T08:19:02;25.60;1.00
3778;DHT22;1904;50.076;8.660;2023-06-10T08:25:00;25.90;1.00
3778;DHT22;1904;50.076;8.660;2023-06-10T08:27:54;26.00;1.00
3778;DHT22;1904;50.076;8.660;2023-06-10T08:30:42;26.20;1.00
3778;DHT22;1904;50.076;8.660;2023-06-10T08:33:24;26.20;1.00
3778;DHT22;1904;50.076;8.660;2023-06-10T08:39:48;26.40;1.00
3778;DHT22;1904;50.076;8.660;2023-06-10T08:52:06;26.70;1.00
3778;DHT22;1904;50.076;8.660;2023-06-10T09:01:43;26.90;1.00
3778;DHT22;1904;50.076;8.660;2023-06-10T09:04:09;27.00;1.00
3778;DHT22;1904;50.076;8.660;2023-06-10T09:13:24;27.30;1.00
3778;DHT22;1904;50.076;8.660;2023-06-10T09:29:02;28.00;1.00
3778;DHT22;1904;50.076;8.660;2023-06-10T09:41:45;28.30;1.00
3778;DHT22;1904;50.076;8.660;2023-06-10T09:50:48;28.60;1.00
3778;DHT22;1904;50.076;8.660;2023-06-10T09:53:37;28.70;1.00
3778;DHT22;1904;50.076;8.660;2023-06-10T09:59:37;29.00;1.00
3778;DHT22;1904;50.076;8.660;2023-06-10T10:05:25;29.10;1.00
3778;DHT22;1904;50.076;8.660;2023-06-10T10:14:46;29.50;1.00
3778;DHT22;1904;50.076;8.660;2023-06-10T10:17:20;29.60;1.00
3778;DHT22;1904;50.076;8.660;2023-06-10T10:23:40;29.60;1.00
3778;DHT22;1904;50.076;8.660;2023-06-10T10:26:21;29.50;1.00
3778;DHT22;1904;50.076;8.660;2023-06-10T10:35:42;29.50;1.00
3778;DHT22;1904;50.076;8.660;2023-06-10T10:38:19;29.70;1.00
3778;DHT22;1904;50.076;8.660;2023-06-10T10:40:49;30.00;1.00
3778;DHT22;1904;50.076;8.660;2023-06-10T10:43:19;30.10;1.00
3778;DHT22;1904;50.076;8.660;2023-06-10T10:46:12;30.10;1.00
3778;DHT22;1904;50.076;8.660;2023-06-10T10:48:56;30.20;1.00
3778;DHT22;1904;50.076;8.660;2023-06-10T10:52:01;30.40;1.00
3778;DHT22;1904;50.076;8.660;2023-06-10T10:54:49;30.60;1.00
3778;DHT22;1904;50.076;8.660;2023-06-10T10:57:28;30.70;1.00
3778;DHT22;1904;50.076;8.660;2023-06-10T11:03:17;31.00;1.00
3778;DHT22;1904;50.076;8.660;2023-06-10T11:05:45;31.20;1.00
3778;DHT22;1904;50.076;8.660;2023-06-10T11:18:24;31.70;1.00
3778;DHT22;1904;50.076;8.660;2023-06-10T11:44:49;31.70;1.00
3778;DHT22;1904;50.076;8.660;2023-06-10T11:50:37;32.50;1.00
3778;DHT22;1904;50.076;8.660;2023-06-10T11:53:25;32.70;1.00
3778;DHT22;1904;50.076;8.660;2023-06-10T11:59:12;32.80;1.00
3778;DHT22;1904;50.076;8.660;2023-06-10T12:02:00;32.70;1.00
3778;DHT22;1904;50.076;8.660;2023-06-10T12:04:43;32.50;1.00
3778;DHT22;1904;50.076;8.660;2023-06-10T12:07:19;32.40;1.00
3778;DHT22;1904;50.076;8.660;2023-06-10T12:09:59;32.70;1.00
3778;DHT22;1904;50.076;8.660;2023-06-10T12:12:25;32.90;1.00
3778;DHT22;1904;50.076;8.660;2023-06-10T12:24:59;33.40;1.00
3778;DHT22;1904;50.076;8.660;2023-06-10T12:40:33;31.70;1.00
3778;DHT22;1904;50.076;8.660;2023-06-10T12:46:55;31.50;1.00
3778;DHT22;1904;50.076;8.660;2023-06-10T12:49:31;31.50;1.00
3778;DHT22;1904;50.076;8.660;2023-06-10T12:52:01;31.50;1.00
3778;DHT22;1904;50.076;8.660;2023-06-10T12:54:37;31.50;1.00
3778;DHT22;1904;50.076;8.660;2023-06-10T13:10:55;32.50;1.00
3778;DHT22;1904;50.076;8.660;2023-06-10T13:23:37;33.00;1.00
3778;DHT22;1904;50.076;8.660;2023-06-10T13:26:35;33.10;1.00
3778;DHT22;1904;50.076;8.660;2023-06-10T13:35:37;32.40;1.00
3778;DHT22;1904;50.076;8.660;2023-06-10T13:41:25;32.00;1.00
3778;DHT22;1904;50.076;8.660;2023-06-10T13:44:19;31.70;1.00
3778;DHT22;1904;50.076;8.660;2023-06-10T13:46:49;32.00;1.00
3778;DHT22;1904;50.076;8.660;2023-06-10T13:52:46;32.60;1.00
3778;DHT22;1904;50.076;8.660;2023-06-10T14:06:55;32.90;1.00
3778;DHT22;1904;50.076;8.660;2023-06-10T14:09:31;32.90;1.00
3778;DHT22;1904;50.076;8.660;2023-06-10T14:11:57;32.80;1.00
3778;DHT22;1904;50.076;8.660;2023-06-10T14:14:38;32.80;1.00
3778;DHT22;1904;50.076;8.660;2023-06-10T14:20:25;33.40;1.00
3778;DHT22;1904;50.076;8.660;2023-06-10T14:26:20;34.10;1.00
3778;DHT22;1904;50.076;8.660;2023-06-10T14:32:25;34.50;1.00
3778;DHT22;1904;50.076;8.660;2023-06-10T14:34:55;34.60;1.00
3778;DHT22;1904;50.076;8.660;2023-06-10T14:40:43;34.60;1.00
3778;DHT22;1904;50.076;8.660;2023-06-10T14:43:09;34.60;1.00
3778;DHT22;1904;50.076;8.660;2023-06-10T14:45:55;34.70;1.00
3778;DHT22;1904;50.076;8.660;2023-06-10T14:48:31;34.80;1.00
3778;DHT22;1904;50.076;8.660;2023-06-10T14:51:25;34.80;1.00
3778;DHT22;1904;50.076;8.660;2023-06-10T14:53:55;34.70;1.00
3778;DHT22;1904;50.076;8.660;2023-06-10T14:56:37;34.70;1.00
3778;DHT22;1904;50.076;8.660;2023-06-10T14:59:13;34.50;1.00
3778;DHT22;1904;50.076;8.660;2023-06-10T15:04:49;34.20;1.00
3778;DHT22;1904;50.076;8.660;2023-06-10T15:07:25;34.20;1.00
3778;DHT22;1904;50.076;8.660;2023-06-10T15:10:13;34.60;1.00
3778;DHT22;1904;50.076;8.660;2023-06-10T15:12:43;34.50;1.00
3778;DHT22;1904;50.076;8.660;2023-06-10T15:15:09;34.20;1.00
3778;DHT22;1904;50.076;8.660;2023-06-10T15:17:35;33.90;1.00
3778;DHT22;1904;50.076;8.660;2023-06-10T15:23:31;33.20;1.00
3778;DHT22;1904;50.076;8.660;2023-06-10T15:26:13;32.80;1.00
3778;DHT22;1904;50.076;8.660;2023-06-10T15:28:39;32.60;1.00
3778;DHT22;1904;50.076;8.660;2023-06-10T15:31:19;32.30;1.00
3778;DHT22;1904;50.076;8.660;2023-06-10T15:34:13;32.10;1.00
3778;DHT22;1904;50.076;8.660;2023-06-10T15:36:38;32.10;1.00
3778;DHT22;1904;50.076;8.660;2023-06-10T15:39:13;33.70;1.00
3778;DHT22;1904;50.076;8.660;2023-06-10T15:41:49;36.10;1.00
3778;DHT22;1904;50.076;8.660;2023-06-10T15:44:19;38.50;1.00
3778;DHT22;1904;50.076;8.660;2023-06-10T15:47:01;40.40;1.00
3778;DHT22;1904;50.076;8.660;2023-06-10T15:49:43;42.30;1.00
3778;DHT22;1904;50.076;8.660;2023-06-10T15:52:09;44.10;1.00
3778;DHT22;1904;50.076;8.660;2023-06-10T15:55:07;45.50;1.00
3778;DHT22;1904;50.076;8.660;2023-06-10T15:57:43;46.70;1.00
3778;DHT22;1904;50.076;8.660;2023-06-10T16:00:31;48.00;1.00
3778;DHT22;1904;50.076;8.660;2023-06-10T16:03:07;48.40;1.00
3778;DHT22;1904;50.076;8.660;2023-06-10T16:05:43;48.80;1.00
3778;DHT22;1904;50.076;8.660;2023-06-10T16:11:31;49.80;1.00
3778;DHT22;1904;50.076;8.660;2023-06-10T16:14:13;49.80;1.00
3778;DHT22;1904;50.076;8.660;2023-06-10T16:16:43;49.60;1.00
3778;DHT22;1904;50.076;8.660;2023-06-10T16:19:19;48.60;1.00
3778;DHT22;1904;50.076;8.660;2023-06-10T16:21:55;48.30;1.00
3778;DHT22;1904;50.076;8.660;2023-06-10T16:24:43;48.10;1.00
3778;DHT22;1904;50.076;8.660;2023-06-10T16:27:13;46.90;1.00
3778;DHT22;1904;50.076;8.660;2023-06-10T16:29:43;45.20;1.00
3778;DHT22;1904;50.076;8.660;2023-06-10T16:32:19;43.60;1.00
3778;DHT22;1904;50.076;8.660;2023-06-10T16:34:49;42.10;1.00
3778;DHT22;1904;50.076;8.660;2023-06-10T16:37:43;40.70;1.00
3778;DHT22;1904;50.076;8.660;2023-06-10T16:40:43;40.10;1.00
3778;DHT22;1904;50.076;8.660;2023-06-10T16:46:37;39.00;1.00
3778;DHT22;1904;50.076;8.660;2023-06-10T16:52:43;40.00;1.00
3778;DHT22;1904;50.076;8.660;2023-06-10T16:55:19;40.70;1.00
3778;DHT22;1904;50.076;8.660;2023-06-10T17:04:31;44.00;1.00
3778;DHT22;1904;50.076;8.660;2023-06-10T17:07:01;44.80;1.00
3778;DHT22;1904;50.076;8.660;2023-06-10T17:15:49;45.50;1.00
3778;DHT22;1904;50.076;8.660;2023-06-10T17:21:21;46.10;1.00
3778;DHT22;1904;50.076;8.660;2023-06-10T17:26:25;45.60;1.00
3778;DHT22;1904;50.076;8.660;2023-06-10T17:28:55;45.10;1.00
3778;DHT22;1904;50.076;8.660;2023-06-10T17:31:22;45.00;1.00
3778;DHT22;1904;50.076;8.660;2023-06-10T17:33:49;44.70;1.00
3778;DHT22;1904;50.076;8.660;2023-06-10T17:59:01;34.00;1.00
3778;DHT22;1904;50.076;8.660;2023-06-10T18:01:27;33.30;1.00
3778;DHT22;1904;50.076;8.660;2023-06-10T18:03:53;32.70;1.00
3778;DHT22;1904;50.076;8.660;2023-06-10T18:06:18;32.20;1.00
3778;DHT22;1904;50.076;8.660;2023-06-10T18:08:44;31.50;1.00
3778;DHT22;1904;50.076;8.660;2023-06-10T18:11:11;31.10;1.00
3778;DHT22;1904;50.076;8.660;2023-06-10T18:16:03;29.90;1.00
3778;DHT22;1904;50.076;8.660;2023-06-10T18:18:32;29.80;1.00
3778;DHT22;1904;50.076;8.660;2023-06-10T18:21:08;29.60;1.00
3778;DHT22;1904;50.076;8.660;2023-06-10T18:31:19;28.70;1.00
3778;DHT22;1904;50.076;8.660;2023-06-10T18:37:07;28.20;1.00
3778;DHT22;1904;50.076;8.660;2023-06-10T18:39:49;28.00;1.00
3778;DHT22;1904;50.076;8.660;2023-06-10T18:45:37;27.70;1.00
3778;DHT22;1904;50.076;8.660;2023-06-10T18:57:04;26.90;1.00
3778;DHT22;1904;50.076;8.660;2023-06-10T19:06:00;26.60;1.00
3778;DHT22;1904;50.076;8.660;2023-06-10T19:11:55;26.20;1.00
3778;DHT22;1904;50.076;8.660;2023-06-10T19:14:22;26.00;1.00
3778;DHT22;1904;50.076;8.660;2023-06-10T19:16:49;25.90;1.00
3778;DHT22;1904;50.076;8.660;2023-06-10T19:22:43;25.60;1.00
3778;DHT22;1904;50.076;8.660;2023-06-10T19:25:09;25.40;1.00
3778;DHT22;1904;50.076;8.660;2023-06-10T19:36:53;24.80;1.00
3778;DHT22;1904;50.076;8.660;2023-06-10T19:39:43;24.60;1.00
3778;DHT22;1904;50.076;8.660;2023-06-10T19:45:31;24.30;1.00
3778;DHT22;1904;50.076;8.660;2023-06-10T19:51:19;24.00;1.00
3778;DHT22;1904;50.076;8.660;2023-06-10T19:57:07;23.70;1.00
3778;DHT22;1904;50.076;8.660;2023-06-10T20:02:37;23.40;1.00
3778;DHT22;1904;50.076;8.660;2023-06-10T20:05:13;23.40;1.00
3778;DHT22;1904;50.076;8.660;2023-06-10T20:07:39;23.30;1.00
3778;DHT22;1904;50.076;8.660;2023-06-10T20:10:05;23.20;1.00
3778;DHT22;1904;50.076;8.660;2023-06-10T20:12:31;23.10;1.00
3778;DHT22;1904;50.076;8.660;2023-06-10T20:14:57;23.00;1.00
3778;DHT22;1904;50.076;8.660;2023-06-10T20:17:31;23.00;1.00
3778;DHT22;1904;50.076;8.660;2023-06-10T20:19:57;22.90;1.00
3778;DHT22;1904;50.076;8.660;2023-06-10T20:22:25;22.90;1.00
3778;DHT22;1904;50.076;8.660;2023-06-10T20:25:07;22.70;1.00
3778;DHT22;1904;50.076;8.660;2023-06-10T20:27:37;22.70;1.00
3778;DHT22;1904;50.076;8.660;2023-06-10T20:30:08;22.60;1.00
3778;DHT22;1904;50.076;8.660;2023-06-10T20:32:34;22.50;1.00
3778;DHT22;1904;50.076;8.660;2023-06-10T20:35:01;22.40;1.00
3778;DHT22;1904;50.076;8.660;2023-06-10T20:37:37;22.30;1.00
3778;DHT22;1904;50.076;8.660;2023-06-10T20:40:19;22.30;1.00
3778;DHT22;1904;50.076;8.660;2023-06-10T20:42:49;22.20;1.00
3778;DHT22;1904;50.076;8.660;2023-06-10T20:45:15;22.10;1.00
3778;DHT22;1904;50.076;8.660;2023-06-10T20:47:43;22.00;1.00
3778;DHT22;1904;50.076;8.660;2023-06-10T20:50:19;22.00;1.00
3778;DHT22;1904;50.076;8.660;2023-06-10T20:52:49;21.90;1.00
3778;DHT22;1904;50.076;8.660;2023-06-10T20:55:16;21.90;1.00
3778;DHT22;1904;50.076;8.660;2023-06-10T20:57:43;21.80;1.00
3778;DHT22;1904;50.076;8.660;2023-06-10T21:00:14;21.80;1.00
3778;DHT22;1904;50.076;8.660;2023-06-10T21:02:43;21.70;1.00
3778;DHT22;1904;50.076;8.660;2023-06-10T21:05:14;21.60;1.00
3778;DHT22;1904;50.076;8.660;2023-06-10T21:10:56;21.50;1.00
3778;DHT22;1904;50.076;8.660;2023-06-10T21:13:49;21.40;1.00
3778;DHT22;1904;50.076;8.660;2023-06-10T21:16:15;21.30;1.00
3778;DHT22;1904;50.076;8.660;2023-06-10T21:18:43;21.30;1.00
3778;DHT22;1904;50.076;8.660;2023-06-10T21:21:13;21.20;1.00
3778;DHT22;1904;50.076;8.660;2023-06-10T21:23:43;21.20;1.00
3778;DHT22;1904;50.076;8.660;2023-06-10T21:26:09;21.10;1.00
3778;DHT22;1904;50.076;8.660;2023-06-10T21:28:37;21.10;1.00
3778;DHT22;1904;50.076;8.660;2023-06-10T21:31:03;21.10;1.00
3778;DHT22;1904;50.076;8.660;2023-06-10T21:33:29;21.10;1.00
3778;DHT22;1904;50.076;8.660;2023-06-10T21:35:57;21.00;1.00
3778;DHT22;1904;50.076;8.660;2023-06-10T21:38:22;21.00;1.00
3778;DHT22;1904;50.076;8.660;2023-06-10T21:40:51;21.00;1.00
3778;DHT22;1904;50.076;8.660;2023-06-10T21:43:19;21.00;1.00
3778;DHT22;1904;50.076;8.660;2023-06-10T21:45:55;21.00;1.00
3778;DHT22;1904;50.076;8.660;2023-06-10T21:48:21;20.90;1.00
3778;DHT22;1904;50.076;8.660;2023-06-10T21:50:49;20.90;1.00
3778;DHT22;1904;50.076;8.660;2023-06-10T21:53:15;20.90;1.00
3778;DHT22;1904;50.076;8.660;2023-06-10T21:55:41;20.90;1.00
3778;DHT22;1904;50.076;8.660;2023-06-10T21:58:06;20.80;1.00
3778;DHT22;1904;50.076;8.660;2023-06-10T22:00:32;20.80;1.00
3778;DHT22;1904;50.076;8.660;2023-06-10T22:03:01;20.80;1.00
3778;DHT22;1904;50.076;8.660;2023-06-10T22:05:32;20.80;1.00
3778;DHT22;1904;50.076;8.660;2023-06-10T22:08:13;20.70;1.00
3778;DHT22;1904;50.076;8.660;2023-06-10T22:10:40;20.70;1.00
3778;DHT22;1904;50.076;8.660;2023-06-10T22:13:13;20.70;1.00
3778;DHT22;1904;50.076;8.660;2023-06-10T22:15:43;20.60;1.00
3778;DHT22;1904;50.076;8.660;2023-06-10T22:18:19;20.60;1.00
3778;DHT22;1904;50.076;8.660;2023-06-10T22:20:55;20.60;1.00
3778;DHT22;1904;50.076;8.660;2023-06-10T22:23:43;20.50;1.00
3778;DHT22;1904;50.076;8.660;2023-06-10T22:26:25;20.50;1.00
3778;DHT22;1904;50.076;8.660;2023-06-10T22:28:51;20.50;1.00
3778;DHT22;1904;50.076;8.660;2023-06-10T22:31:19;20.50;1.00
3778;DHT22;1904;50.076;8.660;2023-06-10T22:34:01;20.50;1.00
3778;DHT22;1904;50.076;8.660;2023-06-10T22:36:37;20.50;1.00
3778;DHT22;1904;50.076;8.660;2023-06-10T22:39:25;20.50;1.00
3778;DHT22;1904;50.076;8.660;2023-06-10T22:42:01;20.50;1.00
3778;DHT22;1904;50.076;8.660;2023-06-10T22:44:30;20.50;1.00
3778;DHT22;1904;50.076;8.660;2023-06-10T22:47:01;20.50;1.00
3778;DHT22;1904;50.076;8.660;2023-06-10T22:49:31;20.40;1.00
3778;DHT22;1904;50.076;8.660;2023-06-10T22:51:57;20.40;1.00
3778;DHT22;1904;50.076;8.660;2023-06-10T22:54:25;20.40;1.00
3778;DHT22;1904;50.076;8.660;2023-06-10T22:56:52;20.30;1.00
3778;DHT22;1904;50.076;8.660;2023-06-10T22:59:18;20.30;1.00
3778;DHT22;1904;50.076;8.660;2023-06-10T23:01:55;20.30;1.00
3778;DHT22;1904;50.076;8.660;2023-06-10T23:04:55;20.20;1.00
3778;DHT22;1904;50.076;8.660;2023-06-10T23:07:33;20.20;1.00
3778;DHT22;1904;50.076;8.660;2023-06-10T23:10:13;20.20;1.00
3778;DHT22;1904;50.076;8.660;2023-06-10T23:13:13;20.10;1.00
3778;DHT22;1904;50.076;8.660;2023-06-10T23:15:43;20.10;1.00
3778;DHT22;1904;50.076;8.660;2023-06-10T23:21:31;20.00;1.00
3778;DHT22;1904;50.076;8.660;2023-06-10T23:24:07;20.00;1.00
3778;DHT22;1904;50.076;8.660;2023-06-10T23:26:36;20.00;1.00
3778;DHT22;1904;50.076;8.660;2023-06-10T23:29:02;20.00;1.00
3778;DHT22;1904;50.076;8.660;2023-06-10T23:31:27;19.90;1.00
3778;DHT22;1904;50.076;8.660;2023-06-10T23:33:53;19.90;1.00
3778;DHT22;1904;50.076;8.660;2023-06-10T23:36:19;19.90;1.00
3778;DHT22;1904;50.076;8.660;2023-06-10T23:38:46;19.90;1.00
3778;DHT22;1904;50.076;8.660;2023-06-10T23:41:13;19.80;1.00
3778;DHT22;1904;50.076;8.660;2023-06-10T23:43:43;19.80;1.00
3778;DHT22;1904;50.076;8.660;2023-06-10T23:46:09;19.80;1.00
3778;DHT22;1904;50.076;8.660;2023-06-10T23:48:37;19.70;1.00
3778;DHT22;1904;50.076;8.660;2023-06-10T23:51:03;19.70;1.00
3778;DHT22;1904;50.076;8.660;2023-06-10T23:53:31;19.70;1.00
3778;DHT22;1904;50.076;8.660;2023-06-10T23:55:56;19.70;1.00
3778;DHT22;1904;50.076;8.660;2023-06-10T23:58:25;19.60;1.00
